sensor_id;sensor_type;location;lat;lon;timestamp;P1;durP1;ratioP1;P2;durP2;ratioP2
51451;SDS011;37521;52.020;-1.740;2022-07-23T00:01:04;4.15;;;2.35;;
51451;SDS011;37521;52.020;-1.740;2022-07-23T00:03:33;2.40;;;2.20;;
51451;SDS011;37521;52.020;-1.740;2022-07-23T00:06:01;3.80;;;2.33;;
51451;SDS011;37521;52.020;-1.740;2022-07-23T00:08:35;3.53;;;2.53;;
51451;SDS011;37521;52.020;-1.740;2022-07-23T00:11:04;5.18;;;2.58;;
51451;SDS011;37521;52.020;-1.740;2022-07-23T00:13:32;3.40;;;2.38;;
51451;SDS011;37521;52.020;-1.740;2022-07-23T00:16:01;3.20;;;2.38;;
51451;SDS011;37521;52.020;-1.740;2022-07-23T00:18:31;4.03;;;2.58;;
51451;SDS011;37521;52.020;-1.740;2022-07-23T00:20:59;2.30;;;2.10;;
51451;SDS011;37521;52.020;-1.740;2022-07-23T00:23:27;3.70;;;2.65;;
51451;SDS011;37521;52.020;-1.740;2022-07-23T00:25:57;2.92;;;2.42;;
51451;SDS011;37521;52.020;-1.740;2022-07-23T00:28:25;3.95;;;2.53;;
51451;SDS011;37521;52.020;-1.740;2022-07-23T00:30:54;3.30;;;2.45;;
51451;SDS011;37521;52.020;-1.740;2022-07-23T00:33:22;2.25;;;2.03;;
51451;SDS011;37521;52.020;-1.740;2022-07-23T00:35:52;5.10;;;2.30;;
51451;SDS011;37521;52.020;-1.740;2022-07-23T00:38:20;2.83;;;2.15;;
51451;SDS011;37521;52.020;-1.740;2022-07-23T00:40:49;3.22;;;2.25;;
51451;SDS011;37521;52.020;-1.740;2022-07-23T00:43:19;2.28;;;2.03;;
51451;SDS011;37521;52.020;-1.740;2022-07-23T00:45:48;2.15;;;2.00;;
51451;SDS011;37521;52.020;-1.740;2022-07-23T00:48:17;3.83;;;2.35;;
51451;SDS011;37521;52.020;-1.740;2022-07-23T00:50:46;4.00;;;2.42;;
51451;SDS011;37521;52.020;-1.740;2022-07-23T00:53:15;2.45;;;2.25;;
51451;SDS011;37521;52.020;-1.740;2022-07-23T00:55:44;2.40;;;2.08;;
51451;SDS011;37521;52.020;-1.740;2022-07-23T00:58:12;3.67;;;2.50;;
51451;SDS011;37521;52.020;-1.740;2022-07-23T01:00:40;3.80;;;2.30;;
51451;SDS011;37521;52.020;-1.740;2022-07-23T01:03:09;3.05;;;2.58;;
51451;SDS011;37521;52.020;-1.740;2022-07-23T01:05:37;2.55;;;2.25;;
51451;SDS011;37521;52.020;-1.740;2022-07-23T01:08:06;2.85;;;2.13;;
51451;SDS011;37521;52.020;-1.740;2022-07-23T01:10:35;1.98;;;1.77;;
51451;SDS011;37521;52.020;-1.740;2022-07-23T01:13:05;4.20;;;2.10;;
51451;SDS011;37521;52.020;-1.740;2022-07-23T01:15:36;3.30;;;2.08;;
51451;SDS011;37521;52.020;-1.740;2022-07-23T01:18:06;2.50;;;2.25;;
51451;SDS011;37521;52.020;-1.740;2022-07-23T01:20:36;5.57;;;2.58;;
51451;SDS011;37521;52.020;-1.740;2022-07-23T01:23:08;4.13;;;2.38;;
51451;SDS011;37521;52.020;-1.740;2022-07-23T01:25:47;3.85;;;2.55;;
51451;SDS011;37521;52.020;-1.740;2022-07-23T01:28:17;5.22;;;2.50;;
51451;SDS011;37521;52.020;-1.740;2022-07-23T01:30:45;3.15;;;2.58;;
51451;SDS011;37521;52.020;-1.740;2022-07-23T01:33:13;3.00;;;2.08;;
51451;SDS011;37521;52.020;-1.740;2022-07-23T01:35:42;2.63;;;2.28;;
51451;SDS011;37521;52.020;-1.740;2022-07-23T01:38:17;4.63;;;2.80;;
51451;SDS011;37521;52.020;-1.740;2022-07-23T01:40:45;3.92;;;3.00;;
51451;SDS011;37521;52.020;-1.740;2022-07-23T01:43:21;4.40;;;2.70;;
51451;SDS011;37521;52.020;-1.740;2022-07-23T01:45:52;4.20;;;2.67;;
51451;SDS011;37521;52.020;-1.740;2022-07-23T01:48:21;3.67;;;2.72;;
51451;SDS011;37521;52.020;-1.740;2022-07-23T01:51:08;3.08;;;2.65;;
51451;SDS011;37521;52.020;-1.740;2022-07-23T01:53:42;4.30;;;3.28;;
51451;SDS011;37521;52.020;-1.740;2022-07-23T01:56:10;5.93;;;3.33;;
51451;SDS011;37521;52.020;-1.740;2022-07-23T01:58:41;3.67;;;3.08;;
51451;SDS011;37521;52.020;-1.740;2022-07-23T02:01:10;5.50;;;3.35;;
51451;SDS011;37521;52.020;-1.740;2022-07-23T02:03:39;4.15;;;3.05;;
51451;SDS011;37521;52.020;-1.740;2022-07-23T02:06:08;3.00;;;2.55;;
51451;SDS011;37521;52.020;-1.740;2022-07-23T02:08:37;6.10;;;3.20;;
51451;SDS011;37521;52.020;-1.740;2022-07-23T02:11:06;3.95;;;2.95;;
51451;SDS011;37521;52.020;-1.740;2022-07-23T02:13:34;4.13;;;3.05;;
51451;SDS011;37521;52.020;-1.740;2022-07-23T02:16:03;6.20;;;3.30;;
51451;SDS011;37521;52.020;-1.740;2022-07-23T02:18:32;4.75;;;3.33;;
51451;SDS011;37521;52.020;-1.740;2022-07-23T02:21:00;5.78;;;3.65;;
51451;SDS011;37521;52.020;-1.740;2022-07-23T02:23:29;5.22;;;3.83;;
51451;SDS011;37521;52.020;-1.740;2022-07-23T02:25:57;5.80;;;4.30;;
51451;SDS011;37521;52.020;-1.740;2022-07-23T02:28:26;5.60;;;3.47;;
51451;SDS011;37521;52.020;-1.740;2022-07-23T02:30:56;4.72;;;3.83;;
51451;SDS011;37521;52.020;-1.740;2022-07-23T02:33:24;7.80;;;4.32;;
51451;SDS011;37521;52.020;-1.740;2022-07-23T02:35:53;4.65;;;3.47;;
51451;SDS011;37521;52.020;-1.740;2022-07-23T02:38:22;5.70;;;3.88;;
51451;SDS011;37521;52.020;-1.740;2022-07-23T02:40:50;5.43;;;3.75;;
51451;SDS011;37521;52.020;-1.740;2022-07-23T02:43:18;8.07;;;4.75;;
51451;SDS011;37521;52.020;-1.740;2022-07-23T02:45:48;5.43;;;3.97;;
51451;SDS011;37521;52.020;-1.740;2022-07-23T02:48:16;6.30;;;3.95;;
51451;SDS011;37521;52.020;-1.740;2022-07-23T02:50:46;9.30;;;4.97;;
51451;SDS011;37521;52.020;-1.740;2022-07-23T02:53:20;7.25;;;4.53;;
51451;SDS011;37521;52.020;-1.740;2022-07-23T02:55:48;5.78;;;3.83;;
51451;SDS011;37521;52.020;-1.740;2022-07-23T02:58:17;7.43;;;4.88;;
51451;SDS011;37521;52.020;-1.740;2022-07-23T03:00:48;11.52;;;4.82;;
51451;SDS011;37521;52.020;-1.740;2022-07-23T03:03:17;7.05;;;4.82;;
51451;SDS011;37521;52.020;-1.740;2022-07-23T03:05:45;8.38;;;4.60;;
51451;SDS011;37521;52.020;-1.740;2022-07-23T03:08:14;8.10;;;4.65;;
51451;SDS011;37521;52.020;-1.740;2022-07-23T03:10:47;6.00;;;4.75;;
51451;SDS011;37521;52.020;-1.740;2022-07-23T03:13:16;8.48;;;4.85;;
51451;SDS011;37521;52.020;-1.740;2022-07-23T03:15:44;8.20;;;4.40;;
51451;SDS011;37521;52.020;-1.740;2022-07-23T03:18:14;6.70;;;4.22;;
51451;SDS011;37521;52.020;-1.740;2022-07-23T03:20:43;6.88;;;4.15;;
51451;SDS011;37521;52.020;-1.740;2022-07-23T03:23:11;6.90;;;4.20;;
51451;SDS011;37521;52.020;-1.740;2022-07-23T03:25:40;6.15;;;4.13;;
51451;SDS011;37521;52.020;-1.740;2022-07-23T03:28:09;5.88;;;4.28;;
51451;SDS011;37521;52.020;-1.740;2022-07-23T03:30:38;7.20;;;3.92;;
51451;SDS011;37521;52.020;-1.740;2022-07-23T03:33:06;7.70;;;4.60;;
51451;SDS011;37521;52.020;-1.740;2022-07-23T03:35:36;6.63;;;4.25;;
51451;SDS011;37521;52.020;-1.740;2022-07-23T03:38:17;5.27;;;3.63;;
51451;SDS011;37521;52.020;-1.740;2022-07-23T03:40:46;5.82;;;3.83;;
51451;SDS011;37521;52.020;-1.740;2022-07-23T03:43:14;6.25;;;4.10;;
51451;SDS011;37521;52.020;-1.740;2022-07-23T03:45:43;5.90;;;3.53;;
51451;SDS011;37521;52.020;-1.740;2022-07-23T03:48:12;7.15;;;4.63;;
51451;SDS011;37521;52.020;-1.740;2022-07-23T03:50:41;5.40;;;4.13;;
51451;SDS011;37521;52.020;-1.740;2022-07-23T03:53:10;6.68;;;3.85;;
51451;SDS011;37521;52.020;-1.740;2022-07-23T03:55:38;6.07;;;3.60;;
51451;SDS011;37521;52.020;-1.740;2022-07-23T03:58:07;6.68;;;3.63;;
51451;SDS011;37521;52.020;-1.740;2022-07-23T04:00:35;4.45;;;3.25;;
51451;SDS011;37521;52.020;-1.740;2022-07-23T04:03:04;7.70;;;3.20;;
51451;SDS011;37521;52.020;-1.740;2022-07-23T04:05:33;5.47;;;3.63;;
51451;SDS011;37521;52.020;-1.740;2022-07-23T04:08:06;5.70;;;3.65;;
51451;SDS011;37521;52.020;-1.740;2022-07-23T04:10:38;4.88;;;3.90;;
51451;SDS011;37521;52.020;-1.740;2022-07-23T04:13:10;7.63;;;3.50;;
51451;SDS011;37521;52.020;-1.740;2022-07-23T04:15:38;6.35;;;4.40;;
51451;SDS011;37521;52.020;-1.740;2022-07-23T04:18:07;4.35;;;3.30;;
51451;SDS011;37521;52.020;-1.740;2022-07-23T04:20:46;5.75;;;3.45;;
51451;SDS011;37521;52.020;-1.740;2022-07-23T04:23:17;5.07;;;3.28;;
51451;SDS011;37521;52.020;-1.740;2022-07-23T04:25:46;6.43;;;3.38;;
51451;SDS011;37521;52.020;-1.740;2022-07-23T04:28:15;5.78;;;3.20;;
51451;SDS011;37521;52.020;-1.740;2022-07-23T04:30:44;3.65;;;3.33;;
51451;SDS011;37521;52.020;-1.740;2022-07-23T04:33:15;5.07;;;3.70;;
51451;SDS011;37521;52.020;-1.740;2022-07-23T04:35:46;4.68;;;3.65;;
51451;SDS011;37521;52.020;-1.740;2022-07-23T04:38:19;7.57;;;3.60;;
51451;SDS011;37521;52.020;-1.740;2022-07-23T04:40:51;6.22;;;3.85;;
51451;SDS011;37521;52.020;-1.740;2022-07-23T04:43:19;5.03;;;3.70;;
51451;SDS011;37521;52.020;-1.740;2022-07-23T04:45:49;6.22;;;3.30;;
51451;SDS011;37521;52.020;-1.740;2022-07-23T04:48:18;5.20;;;3.67;;
51451;SDS011;37521;52.020;-1.740;2022-07-23T04:50:52;9.73;;;3.33;;
51451;SDS011;37521;52.020;-1.740;2022-07-23T04:53:24;6.88;;;3.72;;
51451;SDS011;37521;52.020;-1.740;2022-07-23T04:55:56;5.53;;;3.75;;
51451;SDS011;37521;52.020;-1.740;2022-07-23T04:58:25;5.32;;;2.85;;
51451;SDS011;37521;52.020;-1.740;2022-07-23T05:00:53;7.18;;;3.60;;
51451;SDS011;37521;52.020;-1.740;2022-07-23T05:03:24;5.80;;;3.83;;
51451;SDS011;37521;52.020;-1.740;2022-07-23T05:05:53;4.40;;;3.40;;
51451;SDS011;37521;52.020;-1.740;2022-07-23T05:08:23;5.30;;;3.88;;
51451;SDS011;37521;52.020;-1.740;2022-07-23T05:10:54;4.90;;;3.08;;
51451;SDS011;37521;52.020;-1.740;2022-07-23T05:13:22;4.38;;;3.30;;
51451;SDS011;37521;52.020;-1.740;2022-07-23T05:15:52;6.18;;;3.78;;
51451;SDS011;37521;52.020;-1.740;2022-07-23T05:18:20;5.22;;;3.83;;
51451;SDS011;37521;52.020;-1.740;2022-07-23T05:20:49;7.80;;;3.58;;
51451;SDS011;37521;52.020;-1.740;2022-07-23T05:23:20;3.90;;;3.08;;
51451;SDS011;37521;52.020;-1.740;2022-07-23T05:25:50;6.25;;;3.80;;
51451;SDS011;37521;52.020;-1.740;2022-07-23T05:28:18;4.53;;;3.47;;
51451;SDS011;37521;52.020;-1.740;2022-07-23T05:30:50;5.45;;;3.13;;
51451;SDS011;37521;52.020;-1.740;2022-07-23T05:33:20;6.57;;;3.58;;
51451;SDS011;37521;52.020;-1.740;2022-07-23T05:35:49;7.13;;;3.65;;
51451;SDS011;37521;52.020;-1.740;2022-07-23T05:38:25;6.20;;;4.00;;
51451;SDS011;37521;52.020;-1.740;2022-07-23T05:40:58;6.40;;;3.88;;
51451;SDS011;37521;52.020;-1.740;2022-07-23T05:43:28;6.57;;;4.50;;
51451;SDS011;37521;52.020;-1.740;2022-07-23T05:46:00;7.82;;;3.90;;
51451;SDS011;37521;52.020;-1.740;2022-07-23T05:48:29;7.03;;;3.97;;
51451;SDS011;37521;52.020;-1.740;2022-07-23T05:51:02;5.55;;;3.70;;
51451;SDS011;37521;52.020;-1.740;2022-07-23T05:53:33;5.30;;;3.45;;
51451;SDS011;37521;52.020;-1.740;2022-07-23T05:56:09;5.13;;;3.30;;
51451;SDS011;37521;52.020;-1.740;2022-07-23T05:58:38;6.50;;;3.35;;
51451;SDS011;37521;52.020;-1.740;2022-07-23T06:01:07;4.65;;;3.60;;
51451;SDS011;37521;52.020;-1.740;2022-07-23T06:03:43;4.57;;;3.42;;
51451;SDS011;37521;52.020;-1.740;2022-07-23T06:06:11;6.75;;;3.47;;
51451;SDS011;37521;52.020;-1.740;2022-07-23T06:08:41;5.72;;;3.50;;
51451;SDS011;37521;52.020;-1.740;2022-07-23T06:11:12;5.13;;;3.20;;
51451;SDS011;37521;52.020;-1.740;2022-07-23T06:13:40;6.15;;;3.63;;
51451;SDS011;37521;52.020;-1.740;2022-07-23T06:16:09;6.18;;;3.78;;
51451;SDS011;37521;52.020;-1.740;2022-07-23T06:18:38;7.88;;;3.97;;
51451;SDS011;37521;52.020;-1.740;2022-07-23T06:21:07;5.22;;;3.40;;
51451;SDS011;37521;52.020;-1.740;2022-07-23T06:23:57;5.20;;;3.20;;
51451;SDS011;37521;52.020;-1.740;2022-07-23T06:26:26;3.53;;;2.80;;
51451;SDS011;37521;52.020;-1.740;2022-07-23T06:28:55;4.95;;;3.35;;
51451;SDS011;37521;52.020;-1.740;2022-07-23T06:31:25;6.05;;;3.47;;
51451;SDS011;37521;52.020;-1.740;2022-07-23T06:33:53;6.45;;;3.20;;
51451;SDS011;37521;52.020;-1.740;2022-07-23T06:36:21;6.90;;;3.40;;
51451;SDS011;37521;52.020;-1.740;2022-07-23T06:38:50;5.00;;;2.95;;
51451;SDS011;37521;52.020;-1.740;2022-07-23T06:41:18;4.72;;;3.13;;
51451;SDS011;37521;52.020;-1.740;2022-07-23T06:43:48;4.93;;;3.20;;
51451;SDS011;37521;52.020;-1.740;2022-07-23T06:46:16;4.32;;;3.22;;
51451;SDS011;37521;52.020;-1.740;2022-07-23T06:48:45;5.10;;;3.05;;
51451;SDS011;37521;52.020;-1.740;2022-07-23T06:51:14;6.22;;;3.88;;
51451;SDS011;37521;52.020;-1.740;2022-07-23T06:53:42;4.95;;;2.92;;
51451;SDS011;37521;52.020;-1.740;2022-07-23T06:56:10;6.18;;;2.85;;
51451;SDS011;37521;52.020;-1.740;2022-07-23T06:58:39;5.32;;;3.10;;
51451;SDS011;37521;52.020;-1.740;2022-07-23T07:01:09;4.78;;;3.22;;
51451;SDS011;37521;52.020;-1.740;2022-07-23T07:03:37;5.85;;;2.30;;
51451;SDS011;37521;52.020;-1.740;2022-07-23T07:06:05;6.50;;;2.65;;
51451;SDS011;37521;52.020;-1.740;2022-07-23T07:08:34;4.55;;;2.65;;
51451;SDS011;37521;52.020;-1.740;2022-07-23T07:11:02;4.88;;;2.20;;
51451;SDS011;37521;52.020;-1.740;2022-07-23T07:13:31;5.53;;;2.42;;
51451;SDS011;37521;52.020;-1.740;2022-07-23T07:15:59;3.95;;;2.50;;
51451;SDS011;37521;52.020;-1.740;2022-07-23T07:18:29;3.22;;;2.33;;
51451;SDS011;37521;52.020;-1.740;2022-07-23T07:20:57;3.78;;;2.53;;
51451;SDS011;37521;52.020;-1.740;2022-07-23T07:23:26;3.47;;;2.20;;
51451;SDS011;37521;52.020;-1.740;2022-07-23T07:25:54;2.80;;;2.50;;
51451;SDS011;37521;52.020;-1.740;2022-07-23T07:28:22;2.70;;;2.30;;
51451;SDS011;37521;52.020;-1.740;2022-07-23T07:30:50;4.55;;;2.30;;
51451;SDS011;37521;52.020;-1.740;2022-07-23T07:33:19;2.33;;;2.03;;
51451;SDS011;37521;52.020;-1.740;2022-07-23T07:35:49;2.88;;;2.13;;
51451;SDS011;37521;52.020;-1.740;2022-07-23T07:38:18;2.63;;;2.08;;
51451;SDS011;37521;52.020;-1.740;2022-07-23T07:40:46;3.20;;;2.22;;
51451;SDS011;37521;52.020;-1.740;2022-07-23T07:43:15;4.05;;;1.90;;
51451;SDS011;37521;52.020;-1.740;2022-07-23T07:45:43;2.35;;;1.75;;
51451;SDS011;37521;52.020;-1.740;2022-07-23T07:48:11;2.80;;;1.73;;
51451;SDS011;37521;52.020;-1.740;2022-07-23T07:50:40;1.80;;;1.70;;
51451;SDS011;37521;52.020;-1.740;2022-07-23T07:53:11;2.35;;;1.45;;
51451;SDS011;37521;52.020;-1.740;2022-07-23T07:55:39;4.28;;;1.98;;
51451;SDS011;37521;52.020;-1.740;2022-07-23T07:58:08;2.63;;;1.52;;
51451;SDS011;37521;52.020;-1.740;2022-07-23T08:00:36;1.40;;;1.30;;
51451;SDS011;37521;52.020;-1.740;2022-07-23T08:03:05;1.83;;;1.70;;
51451;SDS011;37521;52.020;-1.740;2022-07-23T08:05:33;1.60;;;1.50;;
51451;SDS011;37521;52.020;-1.740;2022-07-23T08:08:02;1.90;;;1.42;;
51451;SDS011;37521;52.020;-1.740;2022-07-23T08:10:31;3.63;;;1.70;;
51451;SDS011;37521;52.020;-1.740;2022-07-23T08:13:00;1.25;;;1.15;;
51451;SDS011;37521;52.020;-1.740;2022-07-23T08:15:28;1.65;;;1.33;;
51451;SDS011;37521;52.020;-1.740;2022-07-23T08:17:58;1.50;;;1.40;;
51451;SDS011;37521;52.020;-1.740;2022-07-23T08:20:27;1.60;;;1.48;;
51451;SDS011;37521;52.020;-1.740;2022-07-23T08:22:56;1.55;;;1.45;;
51451;SDS011;37521;52.020;-1.740;2022-07-23T08:25:27;3.17;;;1.58;;
51451;SDS011;37521;52.020;-1.740;2022-07-23T08:27:58;1.90;;;1.70;;
51451;SDS011;37521;52.020;-1.740;2022-07-23T08:30:27;1.60;;;1.50;;
51451;SDS011;37521;52.020;-1.740;2022-07-23T08:32:57;2.80;;;1.92;;
51451;SDS011;37521;52.020;-1.740;2022-07-23T08:35:28;1.73;;;1.60;;
51451;SDS011;37521;52.020;-1.740;2022-07-23T08:37:58;3.28;;;1.52;;
51451;SDS011;37521;52.020;-1.740;2022-07-23T08:40:29;1.42;;;1.33;;
51451;SDS011;37521;52.020;-1.740;2022-07-23T08:43:00;1.75;;;1.65;;
51451;SDS011;37521;52.020;-1.740;2022-07-23T08:45:36;1.77;;;1.45;;
51451;SDS011;37521;52.020;-1.740;2022-07-23T08:48:07;1.58;;;1.08;;
51451;SDS011;37521;52.020;-1.740;2022-07-23T08:50:39;3.13;;;1.55;;
51451;SDS011;37521;52.020;-1.740;2022-07-23T08:53:10;2.45;;;1.23;;
51451;SDS011;37521;52.020;-1.740;2022-07-23T08:55:39;2.72;;;1.17;;
51451;SDS011;37521;52.020;-1.740;2022-07-23T08:58:09;1.95;;;1.40;;
51451;SDS011;37521;52.020;-1.740;2022-07-23T09:00:37;2.17;;;1.38;;
51451;SDS011;37521;52.020;-1.740;2022-07-23T09:03:05;4.03;;;1.65;;
51451;SDS011;37521;52.020;-1.740;2022-07-23T09:05:34;2.95;;;1.58;;
51451;SDS011;37521;52.020;-1.740;2022-07-23T09:08:06;2.63;;;1.58;;
51451;SDS011;37521;52.020;-1.740;2022-07-23T09:10:43;3.42;;;1.55;;
51451;SDS011;37521;52.020;-1.740;2022-07-23T09:16:03;1.73;;;1.42;;
51451;SDS011;37521;52.020;-1.740;2022-07-23T09:18:36;2.13;;;1.67;;
51451;SDS011;37521;52.020;-1.740;2022-07-23T09:21:08;2.05;;;1.50;;
51451;SDS011;37521;52.020;-1.740;2022-07-23T09:23:38;3.63;;;1.50;;
51451;SDS011;37521;52.020;-1.740;2022-07-23T09:26:16;1.58;;;1.45;;
51451;SDS011;37521;52.020;-1.740;2022-07-23T09:28:50;4.78;;;1.83;;
51451;SDS011;37521;52.020;-1.740;2022-07-23T09:31:21;1.70;;;1.60;;
51451;SDS011;37521;52.020;-1.740;2022-07-23T09:33:51;2.00;;;1.50;;
51451;SDS011;37521;52.020;-1.740;2022-07-23T09:39:06;3.15;;;1.80;;
51451;SDS011;37521;52.020;-1.740;2022-07-23T09:41:35;3.78;;;1.92;;
51451;SDS011;37521;52.020;-1.740;2022-07-23T09:44:09;1.90;;;1.48;;
51451;SDS011;37521;52.020;-1.740;2022-07-23T09:46:39;2.00;;;1.55;;
51451;SDS011;37521;52.020;-1.740;2022-07-23T09:49:11;1.25;;;1.13;;
51451;SDS011;37521;52.020;-1.740;2022-07-23T09:51:43;1.70;;;1.37;;
51451;SDS011;37521;52.020;-1.740;2022-07-23T09:54:21;2.05;;;1.20;;
51451;SDS011;37521;52.020;-1.740;2022-07-23T09:56:53;1.88;;;1.33;;
51451;SDS011;37521;52.020;-1.740;2022-07-23T09:59:24;4.20;;;1.77;;
51451;SDS011;37521;52.020;-1.740;2022-07-23T10:01:55;2.50;;;1.73;;
51451;SDS011;37521;52.020;-1.740;2022-07-23T10:04:31;1.50;;;1.35;;
51451;SDS011;37521;52.020;-1.740;2022-07-23T10:07:04;1.42;;;1.30;;
51451;SDS011;37521;52.020;-1.740;2022-07-23T10:09:54;2.03;;;1.73;;
51451;SDS011;37521;52.020;-1.740;2022-07-23T10:12:42;3.22;;;1.48;;
51451;SDS011;37521;52.020;-1.740;2022-07-23T10:15:24;1.70;;;1.35;;
51451;SDS011;37521;52.020;-1.740;2022-07-23T10:17:52;2.30;;;1.50;;
51451;SDS011;37521;52.020;-1.740;2022-07-23T10:20:21;1.63;;;1.40;;
51451;SDS011;37521;52.020;-1.740;2022-07-23T10:22:53;1.77;;;1.50;;
51451;SDS011;37521;52.020;-1.740;2022-07-23T10:25:29;2.00;;;1.27;;
51451;SDS011;37521;52.020;-1.740;2022-07-23T10:28:08;1.63;;;1.52;;
51451;SDS011;37521;52.020;-1.740;2022-07-23T10:31:00;1.60;;;1.40;;
51451;SDS011;37521;52.020;-1.740;2022-07-23T10:33:40;1.45;;;1.35;;
51451;SDS011;37521;52.020;-1.740;2022-07-23T10:36:16;1.20;;;1.10;;
51451;SDS011;37521;52.020;-1.740;2022-07-23T10:38:51;1.55;;;1.45;;
51451;SDS011;37521;52.020;-1.740;2022-07-23T10:44:10;1.77;;;1.67;;
51451;SDS011;37521;52.020;-1.740;2022-07-23T10:49:36;2.15;;;1.23;;
51451;SDS011;37521;52.020;-1.740;2022-07-23T10:54:55;1.25;;;1.20;;
51451;SDS011;37521;52.020;-1.740;2022-07-23T11:00:20;2.22;;;1.52;;
51451;SDS011;37521;52.020;-1.740;2022-07-23T11:02:51;2.58;;;1.23;;
51451;SDS011;37521;52.020;-1.740;2022-07-23T11:05:24;1.67;;;1.55;;
51451;SDS011;37521;52.020;-1.740;2022-07-23T11:10:44;1.85;;;0.98;;
51451;SDS011;37521;52.020;-1.740;2022-07-23T11:13:28;1.38;;;1.13;;
51451;SDS011;37521;52.020;-1.740;2022-07-23T11:16:05;2.05;;;1.23;;
51451;SDS011;37521;52.020;-1.740;2022-07-23T11:24:15;1.35;;;1.25;;
51451;SDS011;37521;52.020;-1.740;2022-07-23T11:26:46;1.27;;;1.17;;
51451;SDS011;37521;52.020;-1.740;2022-07-23T11:38:02;1.33;;;0.95;;
51451;SDS011;37521;52.020;-1.740;2022-07-23T11:40:33;1.50;;;1.20;;
51451;SDS011;37521;52.020;-1.740;2022-07-23T11:43:03;2.08;;;1.00;;
51451;SDS011;37521;52.020;-1.740;2022-07-23T11:45:33;0.98;;;0.90;;
51451;SDS011;37521;52.020;-1.740;2022-07-23T11:48:05;1.25;;;1.08;;
51451;SDS011;37521;52.020;-1.740;2022-07-23T11:50:37;1.58;;;0.68;;
51451;SDS011;37521;52.020;-1.740;2022-07-23T11:53:05;1.73;;;1.00;;
51451;SDS011;37521;52.020;-1.740;2022-07-23T11:55:34;0.52;;;0.52;;
51451;SDS011;37521;52.020;-1.740;2022-07-23T11:58:02;0.38;;;0.38;;
51451;SDS011;37521;52.020;-1.740;2022-07-23T12:00:31;0.60;;;0.55;;
51451;SDS011;37521;52.020;-1.740;2022-07-23T12:03:06;0.50;;;0.45;;
51451;SDS011;37521;52.020;-1.740;2022-07-23T12:05:36;2.35;;;0.70;;
51451;SDS011;37521;52.020;-1.740;2022-07-23T12:08:07;1.88;;;0.50;;
51451;SDS011;37521;52.020;-1.740;2022-07-23T12:10:37;1.08;;;1.02;;
51451;SDS011;37521;52.020;-1.740;2022-07-23T12:13:08;0.82;;;0.82;;
51451;SDS011;37521;52.020;-1.740;2022-07-23T12:15:38;1.33;;;0.57;;
51451;SDS011;37521;52.020;-1.740;2022-07-23T12:18:09;0.60;;;0.60;;
51451;SDS011;37521;52.020;-1.740;2022-07-23T12:20:41;1.02;;;0.77;;
51451;SDS011;37521;52.020;-1.740;2022-07-23T12:23:12;1.30;;;0.93;;
51451;SDS011;37521;52.020;-1.740;2022-07-23T12:25:47;1.15;;;0.70;;
51451;SDS011;37521;52.020;-1.740;2022-07-23T12:28:17;0.65;;;0.60;;
51451;SDS011;37521;52.020;-1.740;2022-07-23T12:30:47;0.75;;;0.75;;
51451;SDS011;37521;52.020;-1.740;2022-07-23T12:33:21;1.02;;;0.60;;
51451;SDS011;37521;52.020;-1.740;2022-07-23T12:35:53;0.95;;;0.75;;
51451;SDS011;37521;52.020;-1.740;2022-07-23T12:38:23;0.77;;;0.77;;
51451;SDS011;37521;52.020;-1.740;2022-07-23T12:40:54;1.20;;;0.70;;
51451;SDS011;37521;52.020;-1.740;2022-07-23T12:43:24;0.68;;;0.68;;
51451;SDS011;37521;52.020;-1.740;2022-07-23T12:45:54;0.70;;;0.70;;
51451;SDS011;37521;52.020;-1.740;2022-07-23T12:48:34;1.08;;;0.68;;
51451;SDS011;37521;52.020;-1.740;2022-07-23T12:51:06;0.93;;;0.63;;
51451;SDS011;37521;52.020;-1.740;2022-07-23T12:53:44;0.57;;;0.57;;
51451;SDS011;37521;52.020;-1.740;2022-07-23T12:56:16;1.50;;;0.80;;
51451;SDS011;37521;52.020;-1.740;2022-07-23T12:58:46;1.58;;;0.82;;
51451;SDS011;37521;52.020;-1.740;2022-07-23T13:01:24;0.70;;;0.70;;
51451;SDS011;37521;52.020;-1.740;2022-07-23T13:03:55;0.60;;;0.50;;
51451;SDS011;37521;52.020;-1.740;2022-07-23T13:06:26;0.98;;;0.60;;
51451;SDS011;37521;52.020;-1.740;2022-07-23T13:08:57;0.60;;;0.60;;
51451;SDS011;37521;52.020;-1.740;2022-07-23T13:11:27;1.75;;;0.50;;
51451;SDS011;37521;52.020;-1.740;2022-07-23T13:13:56;2.05;;;0.70;;
51451;SDS011;37521;52.020;-1.740;2022-07-23T13:16:24;1.75;;;0.60;;
51451;SDS011;37521;52.020;-1.740;2022-07-23T13:18:54;0.70;;;0.70;;
51451;SDS011;37521;52.020;-1.740;2022-07-23T13:21:25;0.90;;;0.90;;
51451;SDS011;37521;52.020;-1.740;2022-07-23T13:23:56;1.48;;;1.00;;
51451;SDS011;37521;52.020;-1.740;2022-07-23T13:26:25;1.30;;;1.20;;
51451;SDS011;37521;52.020;-1.740;2022-07-23T13:28:54;2.05;;;1.50;;
51451;SDS011;37521;52.020;-1.740;2022-07-23T13:31:22;1.20;;;1.08;;
51451;SDS011;37521;52.020;-1.740;2022-07-23T13:33:50;1.30;;;1.20;;
51451;SDS011;37521;52.020;-1.740;2022-07-23T13:36:19;1.65;;;1.40;;
51451;SDS011;37521;52.020;-1.740;2022-07-23T13:38:48;2.33;;;1.45;;
51451;SDS011;37521;52.020;-1.740;2022-07-23T13:41:17;1.88;;;1.27;;
51451;SDS011;37521;52.020;-1.740;2022-07-23T13:43:46;1.27;;;1.17;;
51451;SDS011;37521;52.020;-1.740;2022-07-23T13:46:14;2.00;;;1.33;;
51451;SDS011;37521;52.020;-1.740;2022-07-23T13:48:42;1.42;;;1.10;;
51451;SDS011;37521;52.020;-1.740;2022-07-23T13:51:10;4.85;;;1.95;;
51451;SDS011;37521;52.020;-1.740;2022-07-23T13:53:39;2.25;;;1.33;;
51451;SDS011;37521;52.020;-1.740;2022-07-23T13:56:09;2.72;;;1.27;;
51451;SDS011;37521;52.020;-1.740;2022-07-23T13:58:37;1.67;;;1.20;;
51451;SDS011;37521;52.020;-1.740;2022-07-23T14:01:07;2.92;;;1.73;;
51451;SDS011;37521;52.020;-1.740;2022-07-23T14:03:35;2.10;;;1.27;;
51451;SDS011;37521;52.020;-1.740;2022-07-23T14:06:04;1.13;;;1.05;;
51451;SDS011;37521;52.020;-1.740;2022-07-23T14:08:42;1.73;;;1.52;;
51451;SDS011;37521;52.020;-1.740;2022-07-23T14:11:12;2.60;;;1.60;;
51451;SDS011;37521;52.020;-1.740;2022-07-23T14:13:40;1.30;;;1.15;;
51451;SDS011;37521;52.020;-1.740;2022-07-23T14:16:09;2.00;;;1.63;;
51451;SDS011;37521;52.020;-1.740;2022-07-23T14:18:37;1.75;;;1.65;;
51451;SDS011;37521;52.020;-1.740;2022-07-23T14:21:06;1.67;;;1.58;;
51451;SDS011;37521;52.020;-1.740;2022-07-23T14:23:35;1.95;;;1.55;;
51451;SDS011;37521;52.020;-1.740;2022-07-23T14:26:05;1.60;;;1.45;;
51451;SDS011;37521;52.020;-1.740;2022-07-23T14:28:34;1.75;;;1.60;;
51451;SDS011;37521;52.020;-1.740;2022-07-23T14:31:05;1.35;;;1.25;;
51451;SDS011;37521;52.020;-1.740;2022-07-23T14:33:47;1.48;;;1.38;;
51451;SDS011;37521;52.020;-1.740;2022-07-23T14:36:15;2.53;;;1.50;;
51451;SDS011;37521;52.020;-1.740;2022-07-23T14:38:43;1.85;;;1.73;;
51451;SDS011;37521;52.020;-1.740;2022-07-23T14:41:11;1.92;;;1.63;;
51451;SDS011;37521;52.020;-1.740;2022-07-23T14:43:43;1.63;;;1.50;;
51451;SDS011;37521;52.020;-1.740;2022-07-23T14:46:13;1.38;;;1.27;;
51451;SDS011;37521;52.020;-1.740;2022-07-23T14:48:42;1.50;;;1.13;;
51451;SDS011;37521;52.020;-1.740;2022-07-23T14:51:10;1.92;;;1.35;;
51451;SDS011;37521;52.020;-1.740;2022-07-23T14:53:38;2.08;;;1.67;;
51451;SDS011;37521;52.020;-1.740;2022-07-23T14:56:06;2.35;;;1.65;;
51451;SDS011;37521;52.020;-1.740;2022-07-23T14:58:35;2.90;;;1.42;;
51451;SDS011;37521;52.020;-1.740;2022-07-23T15:01:04;1.80;;;1.13;;
51451;SDS011;37521;52.020;-1.740;2022-07-23T15:03:33;1.70;;;1.17;;
51451;SDS011;37521;52.020;-1.740;2022-07-23T15:06:08;1.58;;;1.10;;
51451;SDS011;37521;52.020;-1.740;2022-07-23T15:08:38;1.10;;;1.10;;
51451;SDS011;37521;52.020;-1.740;2022-07-23T15:11:06;3.80;;;1.38;;
51451;SDS011;37521;52.020;-1.740;2022-07-23T15:13:36;3.20;;;1.20;;
51451;SDS011;37521;52.020;-1.740;2022-07-23T15:16:06;1.45;;;1.25;;
51451;SDS011;37521;52.020;-1.740;2022-07-23T15:18:36;1.10;;;1.00;;
51451;SDS011;37521;52.020;-1.740;2022-07-23T15:21:05;1.85;;;1.00;;
51451;SDS011;37521;52.020;-1.740;2022-07-23T15:23:34;1.17;;;1.17;;
51451;SDS011;37521;52.020;-1.740;2022-07-23T15:26:06;2.55;;;1.02;;